This is the latest recevied weather packets stored in our database for station/object SQ9MHX-13. If no packets are shown the sender has not sent any weather packets the latest 10 day(s).
| Time | Temp. | Humidity | Pressure | Rain* | Wind** | Luminosity | Snow |
|---|---|---|---|---|---|---|---|
| 1777707332 | 16.11° C | 51% | 970.5 hPa | - | 0 m/s | - | - |
| 1777707033 | 16.11° C | 51% | 970.3 hPa | - | 0 m/s | - | - |
| 1777706734 | 16.11° C | 52% | 970.8 hPa | - | 0 m/s | - | - |
| 1777706436 | 16.11° C | 52% | 970.7 hPa | - | 0 m/s | - | - |
| 1777706137 | 16.11° C | 53% | 970.9 hPa | - | 0 m/s | - | - |
| 1777705838 | 17.22° C | 53% | 970.8 hPa | - | 0 m/s | - | - |
| 1777705539 | 16.11° C | 55% | 971.7 hPa | - | 0 m/s | - | - |
| 1777705240 | 15° C | 58% | 972.1 hPa | - | 0 m/s | - | - |
| 1777704942 | 15° C | 59% | 972.1 hPa | - | 0 m/s | - | - |
| 1777704643 | 13.89° C | 58% | 973.2 hPa | - | 0 m/s | - | - |
| 1777704344 | 13.89° C | 58% | 973.4 hPa | - | 0 m/s | - | - |
| 1777704045 | 13.89° C | 62% | 973.5 hPa | - | 0 m/s | - | - |
| 1777703747 | 12.78° C | 63% | 974 hPa | - | 0 m/s | - | - |
| 1777703448 | 12.78° C | 63% | 973.9 hPa | - | 0 m/s | - | - |
| 1777703149 | 12.78° C | 62% | 974 hPa | - | 0 m/s | - | - |
| 1777702851 | 13.89° C | 58% | 974.6 hPa | - | 0 m/s | - | - |
| 1777702552 | 13.89° C | 62% | 974.5 hPa | - | 0 m/s | - | - |
| 1777702253 | 13.89° C | 60% | 975 hPa | - | 0 m/s | - | - |
| 1777701955 | 13.89° C | 60% | 975.6 hPa | - | 0 m/s | - | - |
| 1777701656 | 12.78° C | 62% | 975.8 hPa | - | 0 m/s | - | - |
| 1777701358 | 12.78° C | 62% | 976.2 hPa | - | 0 m/s | - | - |
| 1777701059 | 12.22° C | 63% | 976.5 hPa | - | 0 m/s | - | - |
| 1777700760 | 12.78° C | 59% | 976.7 hPa | - | 0 m/s | - | - |
| 1777700462 | 12.22° C | 64% | 977.2 hPa | - | 0 m/s | - | - |
| 1777700163 | 12.22° C | 64% | 977.6 hPa | - | 0 m/s | - | - |
* Rain since midnight (hover to see other rain measurements)
** Current wind speed in m/s (hover to see current wind gust speed)